Time;durP1;ratioP1;P1;durP2;ratioP2;P2;SDS_P1;SDS_P2;PMS_P1;PMS_P2;Temp;Humidity;BMP_temperature;BMP_pressure;BME280_temperature;BME280_humidity;BME280_pressure;Samples;Min_cycle;Max_cycle;Signal;HPM_P1;HPM_P2
2021/04/01 00:02:06;;;;;;;14.50;6.57;;;14.30;53.80;;;13.17;47.23;98724.91;5071021;28;20467;-80
2021/04/01 00:04:32;;;;;;;17.30;6.45;;;14.10;54.30;;;13.21;47.06;98711.16;5074254;28;20419;-79
2021/04/01 00:06:59;;;;;;;16.15;6.95;;;14.10;54.50;;;13.18;47.18;98710.56;5089907;28;20399;-80
2021/04/01 00:09:25;;;;;;;17.38;6.50;;;14.00;54.50;;;13.06;47.61;98709.78;5092627;28;20423;-78
2021/04/01 00:11:51;;;;;;;21.15;6.70;;;14.00;54.80;;;13.01;47.43;98711.50;5092016;28;20419;-78
2021/04/01 00:14:20;;;;;;;17.15;6.72;;;13.90;54.80;;;12.97;47.76;98705.84;5091211;28;20418;-81
2021/04/01 00:16:47;;;;;;;16.08;6.60;;;13.90;55.00;;;12.87;47.91;98697.66;5087601;28;20426;-81
2021/04/01 00:19:14;;;;;;;16.73;6.82;;;13.80;55.10;;;12.78;47.93;98694.53;5070622;28;20423;-82
2021/04/01 00:21:40;;;;;;;15.93;6.72;;;13.70;55.40;;;12.88;48.00;98696.63;5087412;28;20432;-82
2021/04/01 00:24:07;;;;;;;12.97;6.00;;;13.70;55.40;;;12.93;47.57;98696.72;5086927;28;20525;-82
2021/04/01 00:26:33;;;;;;;16.92;7.00;;;13.80;55.20;;;13.02;47.68;98694.50;5086511;28;20404;-82
2021/04/01 00:28:59;;;;;;;14.00;6.75;;;13.80;55.10;;;13.06;47.26;98699.13;5079590;28;20706;-81
2021/04/01 00:31:26;;;;;;;18.55;6.88;;;13.90;54.90;;;12.99;47.36;98693.16;5078329;28;20396;-81
2021/04/01 00:33:52;;;;;;;13.75;7.13;;;13.90;55.00;;;13.05;47.42;98696.72;5060532;28;20427;-82
2021/04/01 00:36:19;;;;;;;20.67;7.20;;;13.90;55.00;;;13.00;47.57;98696.63;5081817;28;20418;-83
2021/04/01 00:38:45;;;;;;;15.18;7.22;;;13.90;55.00;;;12.86;48.06;98695.22;5078763;28;20416;-81
2021/04/01 00:41:11;;;;;;;17.97;7.00;;;13.80;55.50;;;12.78;48.43;98691.06;5079693;28;20459;-81
2021/04/01 00:43:37;;;;;;;15.90;7.35;;;13.70;55.80;;;12.75;48.69;98699.53;5082289;28;20487;-81
2021/04/01 00:46:03;;;;;;;16.30;7.37;;;13.70;56.20;;;12.82;48.19;98702.06;5080987;28;20465;-82
2021/04/01 00:48:30;;;;;;;17.33;7.00;;;13.60;55.80;;;12.80;48.02;98695.13;5080538;28;20423;-82
2021/04/01 00:50:56;;;;;;;20.33;7.13;;;13.60;55.70;;;12.82;48.08;98683.47;5082513;28;20400;-80
2021/04/01 00:53:22;;;;;;;18.40;7.25;;;13.60;55.60;;;12.70;48.29;98694.13;5081895;28;20530;-81
2021/04/01 00:55:48;;;;;;;17.58;6.90;;;13.60;55.80;;;12.60;48.86;98689.38;5082037;28;20423;-81
2021/04/01 00:58:15;;;;;;;15.35;7.18;;;13.50;56.30;;;12.50;49.03;98688.31;5082273;28;20506;-81
2021/04/01 01:00:42;;;;;;;18.13;7.35;;;13.40;56.60;;;12.45;49.59;98689.03;5081302;28;20522;-82
2021/04/01 01:03:08;;;;;;;13.18;6.75;;;13.30;57.10;;;12.45;49.78;98682.91;5081417;28;20509;-83
2021/04/01 01:05:36;;;;;;;19.83;7.43;;;13.30;57.30;;;12.41;49.87;98685.22;5081432;28;20430;-81
2021/04/01 01:08:02;;;;;;;18.15;7.78;;;13.30;57.30;;;12.52;49.55;98684.41;5081440;28;20521;-81
2021/04/01 01:10:32;;;;;;;20.42;7.55;;;13.30;57.30;;;12.55;49.27;98680.50;5080697;28;20728;-81
2021/04/01 01:13:00;;;;;;;15.30;7.38;;;13.40;57.00;;;12.60;49.17;98677.94;5064168;28;20426;-82
2021/04/01 01:15:27;;;;;;;16.83;7.20;;;13.40;57.00;;;12.54;49.40;98687.66;5083714;28;20412;-81
2021/04/01 01:17:54;;;;;;;16.53;7.10;;;13.40;57.00;;;12.47;49.67;98680.84;5080523;28;20893;-80
2021/04/01 01:20:24;;;;;;;15.45;7.22;;;13.40;57.20;;;12.38;49.94;98677.72;5081202;28;20411;-81
2021/04/01 01:22:53;;;;;;;15.80;7.30;;;13.30;57.50;;;12.32;49.96;98678.66;5080229;28;20407;-80
2021/04/01 01:25:22;;;;;;;16.50;7.40;;;13.20;57.70;;;12.27;50.05;98674.00;5078548;28;20404;-80
2021/04/01 01:27:48;;;;;;;20.17;7.43;;;13.20;57.70;;;12.33;50.25;98674.94;5077628;28;20825;-81
2021/04/01 01:30:19;;;;;;;16.67;7.63;;;13.20;58.10;;;12.30;50.24;98676.22;5079391;28;20553;-81
2021/04/01 01:32:48;;;;;;;13.93;7.25;;;13.20;58.00;;;12.31;50.34;98674.38;5082315;28;20416;-82
2021/04/01 01:35:17;;;;;;;17.75;7.30;;;13.20;58.10;;;12.27;50.26;98674.00;5081705;28;20770;-82
2021/04/01 01:38:04;;;;;;;18.40;7.50;;;13.10;58.00;;;12.26;50.24;98660.97;5081650;28;20452;-83
2021/04/01 01:40:34;;;;;;;17.40;7.95;;;13.10;58.00;;;12.27;49.82;98670.53;5081174;28;20439;-82
2021/04/01 01:43:03;;;;;;;21.00;7.80;;;13.20;57.60;;;12.25;50.02;98662.84;5080772;28;20403;-82
2021/04/01 01:45:30;;;;;;;19.17;7.72;;;13.10;57.90;;;12.15;50.36;98661.78;5087445;28;20440;-83
2021/04/01 01:47:58;;;;;;;19.60;7.20;;;13.10;58.20;;;12.02;51.02;98658.31;5088226;28;20442;-83
2021/04/01 01:50:27;;;;;;;16.60;7.18;;;13.00;58.60;;;12.09;51.05;98660.84;5087184;28;20404;-83
2021/04/01 01:52:54;;;;;;;16.65;7.22;;;12.90;58.80;;;12.11;51.04;98655.28;5085623;28;20429;-82
2021/04/01 01:55:20;;;;;;;13.23;6.90;;;13.00;58.70;;;12.15;50.67;98653.81;5086419;28;20422;-82
2021/04/01 01:57:47;;;;;;;16.63;7.93;;;13.00;58.60;;;12.02;50.69;98654.84;5086397;28;20408;-83
2021/04/01 02:00:20;;;;;;;17.90;7.47;;;13.00;58.50;;;12.01;50.97;98651.38;5067714;28;20698;-83
2021/04/01 02:02:54;;;;;;;14.70;7.17;;;12.90;58.60;;;11.90;51.74;98651.34;5085208;28;20722;-82
2021/04/01 02:05:22;;;;;;;15.97;6.70;;;12.80;59.40;;;11.96;51.52;98648.59;5085346;28;20456;-82
2021/04/01 02:07:49;;;;;;;17.33;7.38;;;12.80;59.50;;;12.05;51.19;98650.91;5084929;28;20719;-81
2021/04/01 02:10:19;;;;;;;18.60;7.30;;;12.90;59.30;;;12.02;51.18;98644.22;5084126;28;20415;-82
2021/04/01 02:12:46;;;;;;;20.65;7.90;;;12.90;59.20;;;11.95;51.55;98635.56;5084440;28;20484;-82
2021/04/01 02:15:15;;;;;;;21.83;6.80;;;12.90;59.40;;;11.94;51.74;98639.25;5084377;28;20407;-82
2021/04/01 02:17:41;;;;;;;24.23;7.53;;;12.90;59.60;;;11.86;51.94;98636.94;5086717;28;20466;-82
2021/04/01 02:20:10;;;;;;;16.00;6.73;;;12.80;60.00;;;11.76;52.31;98632.19;5090828;28;20512;-83
2021/04/01 02:22:36;;;;;;;17.88;7.18;;;12.70;60.40;;;11.65;52.66;98631.06;5089736;28;20476;-82
2021/04/01 02:25:04;;;;;;;19.53;7.03;;;12.60;60.60;;;11.64;52.66;98631.31;5089538;28;20400;-83
2021/04/01 02:27:30;;;;;;;15.73;7.25;;;12.60;60.80;;;11.69;52.67;98631.44;5088630;28;20426;-81
2021/04/01 02:29:57;;;;;;;13.57;7.05;;;12.60;61.00;;;11.74;52.46;98631.59;5087995;28;20528;-83
2021/04/01 02:32:23;;;;;;;13.88;6.68;;;12.60;60.60;;;11.71;52.54;98636.53;5087566;28;20418;-83
2021/04/01 02:34:50;;;;;;;13.20;6.20;;;12.60;60.60;;;11.78;52.34;98629.31;5088069;28;20411;-82
2021/04/01 02:37:16;;;;;;;16.45;6.90;;;12.60;60.30;;;11.82;52.31;98627.78;5086849;28;20607;-81
2021/04/01 02:39:43;;;;;;;15.55;7.40;;;12.70;60.40;;;11.78;52.28;98621.34;5086234;28;20407;-83
2021/04/01 02:42:10;;;;;;;19.05;7.00;;;12.70;60.50;;;11.62;53.09;98618.28;5085551;28;20548;-82
2021/04/01 02:44:36;;;;;;;19.93;7.03;;;12.60;61.00;;;11.52;53.27;98633.13;5087791;28;20403;-82
2021/04/01 02:47:05;;;;;;;16.60;6.87;;;12.50;61.40;;;11.40;53.85;98627.78;5086513;28;20423;-82
2021/04/01 02:49:31;;;;;;;13.35;6.28;;;12.40;62.00;;;11.35;53.99;98624.22;5086098;28;20478;-81
2021/04/01 02:51:57;;;;;;;15.85;7.25;;;12.30;62.20;;;11.28;53.99;98631.44;5085632;28;20407;-80
2021/04/01 02:54:23;;;;;;;20.15;7.38;;;12.20;62.50;;;11.30;54.01;98626.69;5085509;28;20442;-81
2021/04/01 02:56:49;;;;;;;17.73;6.82;;;12.20;62.40;;;11.35;53.66;98629.50;5085571;28;20408;-82
2021/04/01 02:59:16;;;;;;;17.90;7.32;;;12.20;62.10;;;11.28;54.06;98626.91;5087059;28;20423;-79
2021/04/01 03:01:42;;;;;;;20.57;6.80;;;12.20;62.40;;;11.25;53.95;98635.34;5086784;28;20491;-81
2021/04/01 03:04:10;;;;;;;15.40;6.68;;;12.10;62.40;;;11.22;54.20;98628.63;5087396;28;20411;-82
2021/04/01 03:06:36;;;;;;;13.07;6.47;;;12.10;62.70;;;11.21;54.31;98629.66;5069263;28;20423;-81
2021/04/01 03:09:03;;;;;;;13.43;6.68;;;12.10;62.80;;;11.24;54.07;98631.88;5086441;28;20526;-79
2021/04/01 03:11:29;;;;;;;28.83;7.68;;;12.10;62.70;;;11.34;53.96;98633.19;5086699;28;20407;-82
2021/04/01 03:13:55;;;;;;;16.17;7.10;;;12.20;62.70;;;11.42;53.65;98627.56;5068736;28;20434;-81
2021/04/01 03:16:21;;;;;;;17.47;7.23;;;12.20;62.30;;;11.42;53.59;98623.09;5086993;28;20839;-82
2021/04/01 03:18:47;;;;;;;15.43;6.75;;;12.30;62.20;;;11.33;53.85;98635.03;5087450;28;20568;-81
2021/04/01 03:21:14;;;;;;;19.03;7.13;;;12.20;62.20;;;11.33;53.79;98620.97;5087710;28;20962;-82
2021/04/01 03:23:40;;;;;;;20.65;7.38;;;12.20;62.50;;;11.39;53.89;98628.81;5088783;28;20851;-81
2021/04/01 03:26:06;;;;;;;20.80;7.73;;;12.30;62.50;;;11.30;54.21;98624.06;5088186;28;20438;-81
2021/04/01 03:28:33;;;;;;;14.98;6.85;;;12.20;62.60;;;11.16;54.48;98626.88;5088717;28;20446;-80
2021/04/01 03:31:02;;;;;;;15.63;7.38;;;12.10;63.00;;;11.13;54.51;98618.56;5075615;28;20440;-80
2021/04/01 03:33:28;;;;;;;13.35;6.43;;;12.10;63.20;;;11.07;54.95;98620.28;5092186;28;20422;-80
2021/04/01 03:35:55;;;;;;;16.27;7.10;;;12.00;63.40;;;11.12;54.67;98616.97;5086162;28;20481;-81
2021/04/01 03:38:22;;;;;;;18.38;7.22;;;12.00;63.60;;;11.20;54.41;98627.25;5084335;28;20419;-80
2021/04/01 03:40:51;;;;;;;17.10;6.60;;;12.10;63.40;;;11.18;54.56;98616.88;5084669;28;20730;-81
2021/04/01 03:43:18;;;;;;;17.35;7.22;;;12.10;63.30;;;11.20;54.72;98622.75;5084353;28;20480;-81
2021/04/01 03:45:44;;;;;;;21.20;7.38;;;12.10;63.40;;;11.10;54.74;98624.31;5085728;28;20781;-82
2021/04/01 03:48:11;;;;;;;20.42;7.38;;;12.10;63.60;;;11.13;54.80;98621.22;5086282;28;20403;-80
2021/04/01 03:50:38;;;;;;;18.77;6.63;;;12.00;63.80;;;11.05;55.09;98622.34;5087104;28;20817;-81
2021/04/01 03:53:04;;;;;;;15.00;6.50;;;12.00;63.90;;;11.01;55.35;98620.38;5086739;28;20423;-80
2021/04/01 03:58:17;;;;;;;19.80;6.78;;;11.90;64.10;;;10.89;55.84;98630.91;5086379;28;20411;-83
2021/04/01 04:00:50;;;;;;;17.55;7.30;;;11.80;64.70;;;10.91;55.59;98631.47;5086669;28;20486;-81
2021/04/01 04:08:55;;;;;;;22.25;7.43;;;11.90;64.80;;;11.08;55.17;98629.84;5085693;28;20528;-80
2021/04/01 04:16:20;;;;;;;21.88;7.38;;;12.00;64.30;;;11.14;55.21;98630.78;5087971;28;20487;-81
2021/04/01 04:18:46;;;;;;;14.45;6.40;;;12.00;64.10;;;11.08;55.47;98629.03;5086828;28;20411;-81
2021/04/01 04:21:13;;;;;;;15.60;6.85;;;12.00;64.20;;;10.94;55.83;98630.25;5092696;28;20455;-82
2021/04/01 04:23:45;;;;;;;21.83;7.50;;;11.90;64.60;;;11.07;55.48;98632.72;5089373;28;20426;-81
2021/04/01 04:26:11;;;;;;;15.18;7.32;;;11.90;64.80;;;11.09;55.54;98623.53;5087732;28;20824;-81
2021/04/01 04:28:39;;;;;;;18.45;6.88;;;11.90;64.50;;;11.04;55.64;98628.69;5087558;28;20415;-82
2021/04/01 04:31:06;;;;;;;28.80;7.80;;;12.00;64.40;;;10.97;55.60;98622.66;5087836;28;20461;-80
2021/04/01 04:33:32;;;;;;;15.63;7.63;;;11.90;64.50;;;11.05;55.33;98622.34;5085764;28;20419;-82
2021/04/01 04:35:59;;;;;;;14.93;6.85;;;11.90;64.50;;;10.97;55.29;98621.84;5086929;28;20491;-80
2021/04/01 04:38:26;;;;;;;26.92;8.25;;;11.90;64.50;;;10.83;56.01;98637.06;5073043;28;20419;-82
2021/04/01 04:40:59;;;;;;;17.60;7.93;;;11.80;64.90;;;10.89;55.67;98640.69;5071699;28;20455;-81
2021/04/01 04:43:27;;;;;;;16.17;6.97;;;11.80;65.10;;;11.00;55.55;98639.94;5088783;28;20647;-82
2021/04/01 04:45:55;;;;;;;23.38;7.55;;;11.80;64.80;;;10.98;55.71;98642.81;5088944;28;20444;-82
2021/04/01 04:48:22;;;;;;;22.45;7.93;;;11.90;64.90;;;11.07;55.28;98638.81;5070269;28;20479;-80
2021/04/01 04:50:48;;;;;;;28.38;8.93;;;11.90;64.50;;;11.10;55.19;98646.34;5087705;28;20415;-80
2021/04/01 04:53:15;;;;;;;19.85;7.30;;;11.90;65.10;;;11.04;54.97;98639.28;5087825;28;20442;-82
2021/04/01 04:55:58;;;;;;;15.57;7.25;;;12.00;64.10;;;10.99;55.36;98646.25;5088008;28;20406;-80
2021/04/01 04:58:34;;;;;;;15.27;6.75;;;11.90;64.40;;;10.95;55.23;98650.41;5084657;28;20718;-82
2021/04/01 05:01:13;;;;;;;28.77;8.02;;;11.80;64.50;;;10.91;55.59;98649.22;5084523;28;20416;-82
2021/04/01 05:08:56;;;;;;;18.20;8.10;;;11.80;64.70;;;10.86;55.94;98652.53;5094420;28;20468;-83
2021/04/01 05:11:24;;;;;;;23.73;8.40;;;11.80;65.00;;;10.92;55.77;98645.53;5077038;28;20408;-82
2021/04/01 05:13:50;;;;;;;21.25;8.25;;;11.80;64.90;;;10.98;55.64;98650.75;5093532;28;20470;-81
2021/04/01 05:16:17;;;;;;;16.65;7.60;;;11.80;64.70;;;11.01;55.35;98652.97;5096722;28;20445;-83
2021/04/01 05:18:46;;;;;;;17.55;7.28;;;11.90;64.60;;;11.11;54.87;98653.25;5094181;28;20492;-81
2021/04/01 05:21:13;;;;;;;24.58;8.13;;;11.90;64.40;;;11.18;55.01;98643.38;5094141;28;20587;-81
2021/04/01 05:23:46;;;;;;;22.23;7.57;;;12.00;64.20;;;11.28;54.67;98655.31;5091658;28;20415;-82
2021/04/01 05:28:44;;;;;;;24.58;7.68;;;12.10;63.70;;;11.45;54.19;98653.63;5087359;28;20422;-82
2021/04/01 05:31:12;;;;;;;20.30;7.30;;;12.20;63.40;;;11.41;53.31;98663.88;5088357;28;20431;-82
2021/04/01 05:33:43;;;;;;;36.67;8.43;;;12.30;62.50;;;11.36;53.29;98662.91;5087513;28;20453;-80
2021/04/01 05:36:13;;;;;;;21.67;7.38;;;12.20;61.90;;;11.34;53.10;98665.81;5087646;28;20425;-82
2021/04/01 05:38:40;;;;;;;28.77;7.38;;;12.20;61.70;;;11.36;53.17;98670.88;5087370;28;20464;-83
2021/04/01 05:41:08;;;;;;;25.73;7.55;;;12.20;61.70;;;11.37;53.22;98675.94;5066882;28;20726;-85
2021/04/01 05:43:39;;;;;;;18.83;7.18;;;12.20;61.70;;;11.38;52.90;98672.28;5078971;28;20443;-86
2021/04/01 05:46:26;;;;;;;25.67;7.70;;;12.30;61.70;;;11.39;52.99;98663.28;5078442;28;20824;-84
2021/04/01 05:51:58;;;;;;;22.70;7.95;;;12.30;61.40;;;11.54;52.78;98681.44;5085622;28;20411;-82
2021/04/01 05:59:49;;;;;;;27.50;10.73;;;12.50;60.80;;;11.60;52.38;98677.88;5088574;28;20840;-81
2021/04/01 06:05:07;;;;;;;24.05;8.52;;;12.50;60.50;;;11.68;52.06;98680.22;5094587;28;20457;-82
2021/04/01 06:07:41;;;;;;;32.53;7.68;;;12.50;60.40;;;11.71;52.00;98677.13;5092760;28;20426;-82
2021/04/01 06:10:10;;;;;;;23.08;7.60;;;12.60;60.40;;;11.75;51.99;98677.50;5090113;28;20476;-80
2021/04/01 06:12:36;;;;;;;38.53;8.80;;;12.60;60.30;;;11.76;51.78;98679.94;5089295;28;20435;-81
2021/04/01 06:15:12;;;;;;;27.70;8.70;;;12.60;60.30;;;11.79;51.62;98681.31;5089967;28;20408;-81
2021/04/01 06:17:46;;;;;;;33.92;8.68;;;12.60;60.00;;;11.85;51.47;98683.88;5089801;28;20461;-82
2021/04/01 06:20:15;;;;;;;22.05;8.52;;;12.70;59.90;;;11.95;51.31;98686.00;5091065;28;20450;-82
2021/04/01 06:22:43;;;;;;;20.77;7.30;;;12.80;59.50;;;11.99;51.01;98682.63;5089232;28;20557;-81
2021/04/01 06:25:14;;;;;;;20.38;8.43;;;12.80;59.40;;;11.99;51.10;98679.16;5089741;28;20398;-81
2021/04/01 06:27:54;;;;;;;22.85;7.93;;;12.80;59.30;;;11.95;51.26;98686.00;5089112;28;20411;-82
2021/04/01 06:30:31;;;;;;;20.48;7.70;;;12.80;59.40;;;12.06;51.12;98684.38;5088595;28;20816;-80
2021/04/01 06:33:02;;;;;;;29.88;9.27;;;12.80;59.40;;;12.15;50.91;98688.31;5070401;28;20483;-83
2021/04/01 06:35:31;;;;;;;40.10;9.63;;;12.90;59.20;;;12.34;50.71;98685.31;5090230;28;20434;-82
2021/04/01 06:40:37;;;;;;;44.57;9.30;;;13.20;58.70;;;12.53;50.12;98688.69;5089291;28;20450;-81
2021/04/01 06:43:15;;;;;;;28.73;8.00;;;13.30;58.40;;;12.56;49.87;98676.78;5086502;28;20420;-83
2021/04/01 06:45:46;;;;;;;27.48;8.75;;;13.40;58.10;;;12.61;49.64;98677.72;5089025;28;20485;-82
2021/04/01 06:48:19;;;;;;;26.27;9.23;;;13.40;57.90;;;12.64;49.53;98674.56;5089984;28;20395;-81
2021/04/01 06:50:48;;;;;;;32.70;9.15;;;13.40;57.80;;;12.70;49.47;98671.00;5092118;28;20411;-81
2021/04/01 06:53:29;;;;;;;33.33;10.07;;;13.50;57.60;;;12.75;49.26;98670.31;5090327;28;20415;-81
2021/04/01 06:59:00;;;;;;;26.30;8.77;;;13.60;57.20;;;12.88;48.85;98669.22;5088844;28;20434;-82
2021/04/01 07:04:06;;;;;;;29.58;9.52;;;13.70;56.90;;;13.05;48.32;98664.81;5088367;28;20445;-83
2021/04/01 07:06:36;;;;;;;43.35;10.25;;;13.80;56.70;;;13.07;48.26;98660.88;5090604;28;20491;-82
2021/04/01 07:09:19;;;;;;;31.83;9.67;;;13.90;56.60;;;13.11;48.31;98661.22;5090320;28;20565;-83
2021/04/01 07:11:45;;;;;;;33.20;10.00;;;13.90;56.40;;;13.18;48.17;98662.72;5088734;28;20391;-82
2021/04/01 07:14:19;;;;;;;31.70;10.27;;;14.00;56.40;;;13.25;47.86;98667.09;5092823;28;20406;-82
2021/04/01 07:16:49;;;;;;;31.75;8.95;;;14.00;56.10;;;13.39;47.62;98657.78;5091341;28;20443;-82
2021/04/01 07:47:21;;;;;;;30.33;9.70;;;15.10;53.20;;;14.61;44.92;98656.09;5088266;28;20730;-82
2021/04/01 07:49:50;;;;;;;38.55;10.27;;;15.30;53.00;;;14.85;44.98;98658.53;5085931;28;20949;-81
2021/04/01 07:52:21;;;;;;;29.55;9.98;;;15.50;53.10;;;14.94;44.21;98663.19;5087565;28;20408;-81
2021/04/01 08:00:00;;;;;;;25.15;10.00;;;15.80;51.80;;;15.16;43.64;98662.38;5088626;28;20407;-82
2021/04/01 08:02:48;;;;;;;24.23;9.60;;;15.90;51.30;;;15.24;43.24;98659.28;5093608;28;20426;-81
2021/04/01 08:05:14;;;;;;;24.77;10.60;;;15.90;51.00;;;15.33;42.99;98661.25;5090607;28;20672;-82
2021/04/01 08:07:58;;;;;;;32.20;10.13;;;16.00;50.70;;;15.54;43.00;98656.97;5071613;28;20435;-80
2021/04/01 08:10:32;;;;;;;31.70;10.27;;;16.20;50.60;;;15.55;42.79;98661.25;5071816;28;20709;-83
2021/04/01 08:13:11;;;;;;;38.45;11.27;;;16.20;50.60;;;15.40;42.98;98656.53;5070276;28;20412;-83
2021/04/01 08:15:43;;;;;;;29.58;10.02;;;16.20;50.50;;;15.37;43.25;98657.00;5070134;28;20419;-84
2021/04/01 08:21:12;;;;;;;22.70;8.82;;;16.10;51.00;;;15.32;43.51;98656.97;5043179;28;20420;-81
2021/04/01 08:23:54;;;;;;;28.30;9.32;;;16.10;51.30;;;15.35;43.44;98655.66;5087371;28;20408;-81
2021/04/01 08:32:00;;;;;;;44.25;10.68;;;16.20;51.10;;;15.70;42.88;98655.25;5066894;28;20443;-82
2021/04/01 08:36:55;;;;;;;36.00;8.57;;;16.60;50.00;;;16.30;41.74;98648.78;5060829;28;20409;-83
2021/04/01 08:39:22;;;;;;;46.38;10.45;;;16.90;49.70;;;16.57;41.09;98634.25;5059507;28;20555;-84
2021/04/01 08:42:36;;;;;;;29.50;9.98;;;17.20;48.90;;;16.86;40.49;98645.41;5060828;28;20416;-84
2021/04/01 08:45:35;;;;;;;25.00;10.25;;;17.50;48.10;;;16.96;40.12;98647.31;5068398;28;20440;-82
2021/04/01 08:48:28;;;;;;;33.17;9.30;;;17.60;47.60;;;16.81;40.83;98650.72;4992668;28;20775;-82
2021/04/01 08:51:18;;;;;;;29.27;9.30;;;17.50;47.70;;;16.85;41.08;98651.00;5060892;28;20413;-82
2021/04/01 08:54:00;;;;;;;34.22;9.07;;;17.50;48.40;;;16.79;41.40;98644.03;5058241;28;20417;-81
2021/04/01 08:56:51;;;;;;;24.95;9.20;;;17.50;48.60;;;16.77;41.73;98636.25;5060810;28;20496;-82
2021/04/01 08:59:24;;;;;;;27.73;8.57;;;17.50;49.00;;;17.11;41.21;98638.56;5042825;28;20413;-83
2021/04/01 09:01:52;;;;;;;29.80;8.87;;;17.60;49.00;;;17.44;40.46;98635.44;5063785;28;20493;-82
2021/04/01 09:04:23;;;;;;;28.27;8.95;;;17.90;48.50;;;17.46;40.59;98632.47;5059906;28;20412;-82
2021/04/01 09:06:54;;;;;;;26.40;8.88;;;18.10;48.00;;;17.57;40.15;98631.44;5060351;28;20409;-82
2021/04/01 09:09:29;;;;;;;22.88;7.82;;;18.20;47.50;;;17.62;39.83;98629.59;5056338;28;20409;-82
2021/04/01 09:12:12;;;;;;;25.42;8.45;;;18.30;47.20;;;17.73;39.80;98625.88;5059113;28;20477;-82
2021/04/01 09:14:45;;;;;;;27.38;8.10;;;18.40;47.00;;;17.78;39.59;98633.09;5062408;28;20424;-83
2021/04/01 09:17:12;;;;;;;24.77;6.85;;;18.50;46.70;;;17.79;39.25;98624.00;5067909;28;20413;-85
2021/04/01 09:19:41;;;;;;;30.15;8.05;;;18.50;46.30;;;17.86;39.42;98629.91;5071543;28;20439;-84
2021/04/01 09:22:17;;;;;;;35.70;8.40;;;18.50;46.60;;;17.75;40.22;98631.75;5065796;28;20425;-84
2021/04/01 09:24:44;;;;;;;30.27;8.25;;;18.50;47.50;;;17.72;40.57;98629.63;5066536;28;20474;-84
2021/04/01 09:27:13;;;;;;;34.00;7.95;;;18.40;47.70;;;17.72;40.45;98624.28;5061156;28;20420;-85
2021/04/01 09:29:41;;;;;;;24.65;7.88;;;18.40;47.70;;;17.68;40.52;98623.19;5062251;28;20405;-84
2021/04/01 09:32:09;;;;;;;22.42;7.50;;;18.40;47.80;;;17.73;40.59;98630.44;5044486;28;20468;-84
2021/04/01 09:34:37;;;;;;;30.35;8.13;;;18.50;47.90;;;17.75;40.63;98629.06;5061863;28;20551;-83
2021/04/01 09:37:15;;;;;;;33.33;7.53;;;18.50;48.00;;;17.77;40.86;98624.25;5059797;28;20436;-84
2021/04/01 09:39:44;;;;;;;25.83;7.63;;;18.50;48.00;;;17.94;40.41;98625.88;5059311;28;20417;-85
2021/04/01 09:42:14;;;;;;;27.20;7.60;;;18.60;47.90;;;18.17;39.89;98620.78;5061230;28;20488;-84
2021/04/01 09:44:52;;;;;;;19.60;7.20;;;18.70;47.50;;;18.38;39.57;98629.59;5062439;28;20430;-85
2021/04/01 09:47:26;;;;;;;30.92;8.27;;;18.90;47.00;;;18.45;39.33;98624.75;5081103;28;20495;-84
2021/04/01 09:50:00;;;;;;;27.02;7.90;;;19.10;46.60;;;18.35;39.45;98627.44;5080355;28;20439;-84
2021/04/01 09:52:28;;;;;;;28.23;7.10;;;19.00;46.40;;;18.40;39.35;98626.66;5079392;28;20495;-83
2021/04/01 09:54:59;;;;;;;31.65;7.43;;;19.00;46.50;;;18.55;39.07;98629.28;5079905;28;20833;-84
2021/04/01 09:57:41;;;;;;;35.00;8.80;;;19.20;46.40;;;18.52;39.19;98629.81;5062444;28;20450;-84
2021/04/01 10:00:19;;;;;;;32.03;7.60;;;19.20;46.20;;;18.62;38.95;98618.31;5080060;28;20742;-84
2021/04/01 10:03:05;;;;;;;26.95;8.50;;;19.30;46.40;;;18.76;38.76;98612.09;5072452;28;20471;-84
2021/04/01 10:05:51;;;;;;;33.30;9.93;;;19.40;46.00;;;18.92;38.60;98608.28;5093180;28;20478;-83
2021/04/01 10:08:24;;;;;;;27.58;8.95;;;19.50;45.80;;;18.88;38.66;98601.84;5088241;28;20419;-86
2021/04/01 10:10:55;;;;;;;22.10;7.22;;;19.50;45.60;;;19.10;38.28;98601.47;5064013;28;20493;-84
2021/04/01 10:13:24;;;;;;;28.65;7.10;;;19.70;45.60;;;19.26;38.20;98591.44;5081288;28;20411;-85
2021/04/01 10:16:21;;;;;;;28.60;7.03;;;19.80;45.40;;;19.52;37.46;98592.94;5081216;28;20458;-85
2021/04/01 10:18:47;;;;;;;18.45;6.47;;;20.00;44.60;;;19.67;36.92;98590.13;5081049;28;20423;-84
2021/04/01 10:21:14;;;;;;;21.52;5.68;;;20.30;43.90;;;19.51;37.18;98585.94;5082535;28;20487;-84
2021/04/01 10:23:44;;;;;;;29.17;5.47;;;20.20;43.90;;;19.68;37.19;98583.69;5083653;28;20416;-84
2021/04/01 10:26:12;;;;;;;15.27;5.88;;;20.20;44.20;;;19.98;36.75;98579.94;5065721;28;20426;-85
2021/04/01 10:28:56;;;;;;;29.65;6.20;;;20.40;43.90;;;19.99;36.41;98572.69;5081932;28;20861;-85
2021/04/01 10:31:24;;;;;;;19.17;5.47;;;20.60;43.30;;;19.94;35.99;98573.50;5079929;28;20497;-84
2021/04/01 10:34:21;;;;;;;30.25;6.90;;;20.60;42.70;;;20.16;35.65;98564.16;5078068;28;20446;-85
2021/04/01 10:36:50;;;;;;;29.25;8.50;;;20.70;43.00;;;20.43;36.01;98567.16;5062141;28;20415;-84
2021/04/01 10:39:18;;;;;;;23.02;6.55;;;20.90;43.00;;;20.56;35.51;98553.00;5089881;28;20399;-84
2021/04/01 10:41:49;;;;;;;16.80;5.63;;;21.10;42.30;;;20.79;34.83;98546.00;5094604;28;20545;-84
2021/04/01 10:44:18;;;;;;;23.77;5.90;;;21.30;41.80;;;21.02;34.54;98530.91;5091746;28;20422;-85
2021/04/01 10:46:51;;;;;;;19.03;5.90;;;21.50;41.30;;;20.88;34.36;98535.41;5072341;28;20471;-84
2021/04/01 10:49:22;;;;;;;14.45;4.18;;;21.50;40.80;;;21.05;33.94;98528.41;5091626;28;20422;-83
2021/04/01 10:51:50;;;;;;;14.38;5.15;;;21.50;40.60;;;21.11;34.05;98523.78;5070200;28;20415;-85
2021/04/01 10:54:16;;;;;;;18.40;5.45;;;21.70;40.60;;;21.12;33.82;98520.78;5088573;28;20399;-85
2021/04/01 10:56:54;;;;;;;22.17;5.40;;;21.70;40.30;;;21.00;33.94;98525.78;5094061;28;20459;-83
2021/04/01 10:59:37;;;;;;;11.70;4.05;;;21.60;40.30;;;21.04;33.73;98520.66;5073866;28;20408;-85
2021/04/01 11:02:15;;;;;;;18.15;4.15;;;21.60;40.20;;;21.00;33.63;98512.34;5066220;28;20425;-85
2021/04/01 11:04:44;;;;;;;17.00;4.35;;;21.60;40.10;;;21.01;33.60;98513.13;5068260;28;20501;-84
2021/04/01 11:07:11;;;;;;;14.80;4.50;;;21.60;40.00;;;21.01;33.86;98513.94;5066419;28;20512;-85
2021/04/01 11:09:45;;;;;;;15.00;4.40;;;21.60;40.10;;;21.09;33.93;98512.47;5067305;28;20398;-84
2021/04/01 11:12:20;;;;;;;16.33;4.70;;;21.60;40.40;;;21.26;33.34;98501.22;5066435;28;20412;-85
2021/04/01 11:14:51;;;;;;;15.32;3.28;;;21.80;39.90;;;21.26;33.36;98491.25;5047811;28;20409;-86
2021/04/01 11:17:21;;;;;;;16.23;3.95;;;21.80;39.80;;;21.84;32.74;98490.81;5044268;28;20734;-86
2021/04/01 11:19:49;;;;;;;9.60;3.27;;;22.10;39.50;;;21.87;32.26;98492.94;5063259;28;20560;-85
2021/04/01 11:22:15;;;;;;;11.95;3.65;;;22.40;38.40;;;21.56;32.93;98489.97;5063808;28;20425;-85
2021/04/01 11:24:42;;;;;;;17.02;3.30;;;22.20;38.70;;;21.86;32.31;98489.44;5063134;28;20753;-84
2021/04/01 11:27:11;;;;;;;12.63;3.40;;;22.40;38.30;;;21.87;32.23;98490.22;5081800;28;20468;-85
2021/04/01 11:29:38;;;;;;;13.27;3.60;;;22.50;38.20;;;21.60;32.75;98485.56;5088889;28;20562;-85
2021/04/01 11:32:28;;;;;;;15.95;3.55;;;22.30;38.80;;;21.37;33.18;98478.41;5082777;28;20430;-83
2021/04/01 11:34:58;;;;;;;11.63;3.63;;;22.00;39.00;;;21.28;33.29;98475.59;5082770;28;20419;-85
2021/04/01 11:37:28;;;;;;;13.30;3.13;;;21.90;39.40;;;21.35;33.25;98469.84;5080611;28;20430;-84
2021/04/01 11:40:01;;;;;;;15.07;3.57;;;21.90;39.50;;;21.51;33.23;98471.16;5080900;28;20395;-84
2021/04/01 11:42:28;;;;;;;19.30;3.83;;;22.00;39.40;;;21.91;32.24;98473.16;5080140;28;20648;-84
2021/04/01 11:44:59;;;;;;;15.45;3.60;;;22.30;38.60;;;22.21;31.53;98476.41;5078782;28;20399;-85
2021/04/01 11:47:39;;;;;;;32.43;3.80;;;22.70;37.70;;;22.16;31.24;98469.22;5078229;28;20466;-83
2021/04/01 11:50:08;;;;;;;11.30;2.75;;;22.90;37.20;;;22.28;31.58;98457.91;5078299;28;20418;-84
2021/04/01 11:52:34;;;;;;;8.73;2.97;;;22.90;37.20;;;22.32;30.96;98469.72;5081086;28;20408;-85